TimeCDT,TemperatureF,Dew PointF,Humidity,Sea Level PressureIn,VisibilityMPH,Wind Direction,Wind SpeedMPH,Gust SpeedMPH,PrecipitationIn,Events,Conditions,WindDirDegrees,DateUTC
12:53 AM,52.2,48.4,87,30.03,10.0,NW,6.9,-,N/A,,Partly Cloudy,320,2012-10-02 05:53:00
1:53 AM,52.0,48.0,86,30.03,10.0,NW,6.9,-,N/A,,Scattered Clouds,320,2012-10-02 06:53:00
2:53 AM,51.8,48.2,88,30.13,10.0,North,6.9,-,N/A,,Mostly Cloudy,10,2012-10-02 07:53:00
3:53 AM,49.8,48.9,97,30.03,10.0,North,6.9,-,N/A,,Scattered Clouds,350,2012-10-02 08:53:00
4:53 AM,48.7,48.0,97,30.04,10.0,NNW,6.9,-,N/A,,Partly Cloudy,340,2012-10-02 09:53:00
5:53 AM,50.7,48.0,90,30.05,10.0,NNW,6.9,-,N/A,,Partly Cloudy,330,2012-10-02 10:53:00
6:53 AM,51.4,45.0,79,30.06,10.0,NNW,6.9,-,N/A,,Partly Cloudy,340,2012-10-02 11:53:00
7:53 AM,50.7,46.0,84,30.06,9.0,North,6.9,-,N/A,,Partly Cloudy,360,2012-10-02 12:53:00
8:53 AM,53.1,48.0,83,30.07,9.0,Calm,Calm,-,N/A,,Partly Cloudy,0,2012-10-02 13:53:00
9:53 AM,59.0,48.0,67,30.07,10.0,ENE,3.5,-,N/A,,Clear,60,2012-10-02 14:53:00
10:53 AM,62.1,48.0,60,30.07,10.0,SSE,3.5,-,N/A,,Clear,150,2012-10-02 15:53:00
11:53 AM,64.9,45.0,48,30.07,10.0,Calm,Calm,-,N/A,,Clear,0,2012-10-02 16:53:00
12:53 PM,68.0,45.0,43,30.02,10.0,South,8.1,-,N/A,,Clear,190,2012-10-02 17:53:00
1:53 PM,70.0,46.0,42,29.98,10.0,Variable,5.8,-,N/A,,Clear,0,2012-10-02 18:53:00
2:53 PM,72.0,46.0,40,29.94,10.0,SW,9.2,-,N/A,,Partly Cloudy,230,2012-10-02 19:53:00
3:53 PM,73.9,46.9,38,29.91,10.0,SSW,5.8,-,N/A,,Clear,200,2012-10-02 20:53:00
4:53 PM,73.9,46.9,38,29.88,10.0,South,5.8,-,N/A,,Partly Cloudy,170,2012-10-02 21:53:00
5:53 PM,73.9,48.0,40,29.87,10.0,South,11.5,-,N/A,,Clear,190,2012-10-02 22:53:00
6:53 PM,72.0,48.0,43,29.86,10.0,SSE,10.4,-,N/A,,Clear,160,2012-10-02 23:53:00
7:53 PM,68.0,48.9,50,29.87,10.0,SSE,11.5,-,N/A,,Clear,150,2012-10-03 00:53:00
8:53 PM,64.0,51.1,63,29.88,10.0,SSE,10.4,-,N/A,,Clear,160,2012-10-03 01:53:00
9:53 PM,64.9,48.9,56,29.88,10.0,South,13.8,-,N/A,,Clear,170,2012-10-03 02:53:00
10:53 PM,63.0,48.9,60,29.88,10.0,South,9.2,-,N/A,,Clear,170,2012-10-03 03:53:00
11:53 PM,62.1,48.9,62,29.87,10.0,South,11.5,-,N/A,,Clear,170,2012-10-03 04:53:00